sensor_id;sensor_type;location;lat;lon;timestamp;pressure;altitude;pressure_sealevel;temperature;humidity
12221;BME280;6173;42.024;23.096;2022-09-09T07:31:50;96839.06;;;21.40;100.00
12221;BME280;6173;42.024;23.096;2022-09-09T07:34:17;96838.25;;;21.55;100.00
12221;BME280;6173;42.024;23.096;2022-09-09T07:36:44;96834.72;;;21.71;100.00
12221;BME280;6173;42.024;23.096;2022-09-09T07:39:13;96834.50;;;21.79;100.00
12221;BME280;6173;42.024;23.096;2022-09-09T07:41:42;96837.50;;;21.93;100.00
12221;BME280;6173;42.024;23.096;2022-09-09T07:44:11;96834.16;;;22.00;100.00
12221;BME280;6173;42.024;23.096;2022-09-09T07:46:38;96833.75;;;22.17;100.00
12221;BME280;6173;42.024;23.096;2022-09-09T07:49:08;96830.13;;;22.29;100.00
12221;BME280;6173;42.024;23.096;2022-09-09T07:51:37;96807.75;;;22.29;100.00
12221;BME280;6173;42.024;23.096;2022-09-09T07:54:06;96842.69;;;22.64;100.00
12221;BME280;6173;42.024;23.096;2022-09-09T07:56:34;96841.56;;;22.88;100.00
12221;BME280;6173;42.024;23.096;2022-09-09T07:59:02;96842.31;;;23.08;100.00
12221;BME280;6173;42.024;23.096;2022-09-09T08:01:33;96835.38;;;23.37;100.00
12221;BME280;6173;42.024;23.096;2022-09-09T08:04:06;96829.53;;;23.61;100.00
12221;BME280;6173;42.024;23.096;2022-09-09T08:06:37;96837.78;;;23.98;100.00
12221;BME280;6173;42.024;23.096;2022-09-09T08:09:05;96834.03;;;24.10;100.00
12221;BME280;6173;42.024;23.096;2022-09-09T08:11:33;96837.53;;;24.11;98.83
12221;BME280;6173;42.024;23.096;2022-09-09T08:14:01;96827.25;;;24.23;99.85
12221;BME280;6173;42.024;23.096;2022-09-09T08:16:30;96829.09;;;24.49;95.53
12221;BME280;6173;42.024;23.096;2022-09-09T08:19:00;96832.16;;;24.89;91.85
12221;BME280;6173;42.024;23.096;2022-09-09T08:21:30;96834.03;;;25.29;84.46
12221;BME280;6173;42.024;23.096;2022-09-09T08:24:01;96818.66;;;25.47;79.75
12221;BME280;6173;42.024;23.096;2022-09-09T08:26:31;96825.66;;;25.52;73.21
12221;BME280;6173;42.024;23.096;2022-09-09T08:29:00;96823.00;;;25.63;71.64
12221;BME280;6173;42.024;23.096;2022-09-09T08:31:30;96819.72;;;25.32;66.90
12221;BME280;6173;42.024;23.096;2022-09-09T08:33:59;96820.34;;;25.73;63.56
12221;BME280;6173;42.024;23.096;2022-09-09T08:36:28;96826.25;;;25.90;61.88
12221;BME280;6173;42.024;23.096;2022-09-09T08:38:57;96830.34;;;26.49;60.55
12221;BME280;6173;42.024;23.096;2022-09-09T08:41:51;96809.41;;;26.89;57.02
12221;BME280;6173;42.024;23.096;2022-09-09T08:44:25;96822.22;;;27.46;55.19
12221;BME280;6173;42.024;23.096;2022-09-09T08:47:05;96822.22;;;27.39;55.54
12221;BME280;6173;42.024;23.096;2022-09-09T08:49:50;96814.44;;;26.94;56.03
12221;BME280;6173;42.024;23.096;2022-09-09T08:52:24;96819.91;;;27.23;56.60
12221;BME280;6173;42.024;23.096;2022-09-09T08:54:52;96818.97;;;27.94;53.44
12221;BME280;6173;42.024;23.096;2022-09-09T08:57:26;96812.59;;;28.25;48.54
12221;BME280;6173;42.024;23.096;2022-09-09T08:59:55;96813.06;;;28.09;47.47
12221;BME280;6173;42.024;23.096;2022-09-09T09:02:26;96798.06;;;27.66;49.11
12221;BME280;6173;42.024;23.096;2022-09-09T09:05:10;96813.63;;;27.54;50.27
12221;BME280;6173;42.024;23.096;2022-09-09T09:07:52;96773.28;;;26.85;51.67
12221;BME280;6173;42.024;23.096;2022-09-09T09:10:33;96800.38;;;27.67;50.05
12221;BME280;6173;42.024;23.096;2022-09-09T09:13:08;96815.03;;;28.02;48.69
12221;BME280;6173;42.024;23.096;2022-09-09T09:15:42;96818.72;;;28.51;48.77
12221;BME280;6173;42.024;23.096;2022-09-09T09:18:12;96812.78;;;28.63;46.87
12221;BME280;6173;42.024;23.096;2022-09-09T09:20:50;96812.78;;;28.63;47.29
12221;BME280;6173;42.024;23.096;2022-09-09T09:23:22;96815.56;;;28.56;48.63
12221;BME280;6173;42.024;23.096;2022-09-09T09:25:50;96813.69;;;28.42;48.15
12221;BME280;6173;42.024;23.096;2022-09-09T09:28:24;96796.41;;;28.63;48.98
12221;BME280;6173;42.024;23.096;2022-09-09T09:30:55;96802.97;;;28.69;47.55
12221;BME280;6173;42.024;23.096;2022-09-09T09:33:28;96804.16;;;28.68;48.22
12221;BME280;6173;42.024;23.096;2022-09-09T09:35:58;96804.81;;;28.87;49.10
12221;BME280;6173;42.024;23.096;2022-09-09T09:38:26;96768.16;;;28.95;47.71
12221;BME280;6173;42.024;23.096;2022-09-09T09:40:55;96783.13;;;29.17;47.90
12221;BME280;6173;42.024;23.096;2022-09-09T09:43:27;96789.22;;;29.32;47.51
12221;BME280;6173;42.024;23.096;2022-09-09T09:45:55;96790.19;;;29.56;47.13
12221;BME280;6173;42.024;23.096;2022-09-09T09:48:23;96795.44;;;28.95;45.17
12221;BME280;6173;42.024;23.096;2022-09-09T09:50:51;96785.56;;;28.59;46.89
12221;BME280;6173;42.024;23.096;2022-09-09T09:53:24;96774.44;;;28.84;46.95
12221;BME280;6173;42.024;23.096;2022-09-09T09:55:58;96779.94;;;28.77;46.65
12221;BME280;6173;42.024;23.096;2022-09-09T09:58:29;96769.91;;;28.67;47.27
12221;BME280;6173;42.024;23.096;2022-09-09T10:00:59;96771.88;;;28.63;48.07
12221;BME280;6173;42.024;23.096;2022-09-09T10:03:29;96774.38;;;28.92;47.60
12221;BME280;6173;42.024;23.096;2022-09-09T10:05:57;96777.91;;;28.40;48.71
12221;BME280;6173;42.024;23.096;2022-09-09T10:08:25;96772.59;;;28.74;48.74
12221;BME280;6173;42.024;23.096;2022-09-09T10:11:12;96766.47;;;29.46;47.36
12221;BME280;6173;42.024;23.096;2022-09-09T10:13:54;96770.66;;;29.57;46.38
12221;BME280;6173;42.024;23.096;2022-09-09T10:16:35;96772.72;;;30.11;45.14
12221;BME280;6173;42.024;23.096;2022-09-09T10:19:09;96758.22;;;29.83;45.24
12221;BME280;6173;42.024;23.096;2022-09-09T10:21:50;96767.13;;;29.91;45.70
12221;BME280;6173;42.024;23.096;2022-09-09T10:24:41;96775.66;;;29.93;45.73
12221;BME280;6173;42.024;23.096;2022-09-09T10:27:17;96780.38;;;28.72;48.97
12221;BME280;6173;42.024;23.096;2022-09-09T10:30:03;96768.41;;;28.59;49.36
12221;BME280;6173;42.024;23.096;2022-09-09T10:32:41;96788.34;;;29.01;49.30
12221;BME280;6173;42.024;23.096;2022-09-09T10:35:19;96790.16;;;28.66;48.62
12221;BME280;6173;42.024;23.096;2022-09-09T10:38:16;96784.41;;;28.57;49.93
12221;BME280;6173;42.024;23.096;2022-09-09T10:41:00;96775.56;;;28.91;50.03
12221;BME280;6173;42.024;23.096;2022-09-09T10:43:46;96780.81;;;29.57;47.96
12221;BME280;6173;42.024;23.096;2022-09-09T10:46:26;96782.41;;;29.51;48.05
12221;BME280;6173;42.024;23.096;2022-09-09T10:49:07;96782.19;;;29.72;48.15
12221;BME280;6173;42.024;23.096;2022-09-09T10:51:42;96748.81;;;29.88;46.48
12221;BME280;6173;42.024;23.096;2022-09-09T10:54:36;96774.63;;;29.83;46.58
12221;BME280;6173;42.024;23.096;2022-09-09T10:57:13;96784.66;;;29.94;45.89
12221;BME280;6173;42.024;23.096;2022-09-09T10:59:45;96777.28;;;29.91;45.85
12221;BME280;6173;42.024;23.096;2022-09-09T11:02:18;96776.94;;;30.19;44.85
12221;BME280;6173;42.024;23.096;2022-09-09T11:04:50;96779.50;;;30.57;44.29
12221;BME280;6173;42.024;23.096;2022-09-09T11:07:26;96776.25;;;30.08;45.29
12221;BME280;6173;42.024;23.096;2022-09-09T11:09:59;96744.66;;;29.80;46.20
12221;BME280;6173;42.024;23.096;2022-09-09T11:12:27;96766.50;;;30.37;44.70
12221;BME280;6173;42.024;23.096;2022-09-09T11:14:59;96764.53;;;30.11;44.65
12221;BME280;6173;42.024;23.096;2022-09-09T11:17:35;96779.38;;;29.79;45.98
12221;BME280;6173;42.024;23.096;2022-09-09T11:20:05;96772.34;;;29.78;46.51
12221;BME280;6173;42.024;23.096;2022-09-09T11:22:39;96766.19;;;29.36;47.12
12221;BME280;6173;42.024;23.096;2022-09-09T11:25:15;96780.44;;;29.55;48.01
12221;BME280;6173;42.024;23.096;2022-09-09T11:27:50;96775.91;;;29.38;47.84
12221;BME280;6173;42.024;23.096;2022-09-09T11:30:20;96765.72;;;29.42;48.21
12221;BME280;6173;42.024;23.096;2022-09-09T11:33:16;96752.41;;;29.81;47.51
12221;BME280;6173;42.024;23.096;2022-09-09T11:36:00;96755.19;;;29.78;47.17
12221;BME280;6173;42.024;23.096;2022-09-09T11:38:37;96756.69;;;29.48;47.55
12221;BME280;6173;42.024;23.096;2022-09-09T11:41:08;96755.41;;;29.22;49.56
12221;BME280;6173;42.024;23.096;2022-09-09T11:43:39;96743.78;;;29.52;48.46
12221;BME280;6173;42.024;23.096;2022-09-09T11:46:08;96753.75;;;29.32;48.87
12221;BME280;6173;42.024;23.096;2022-09-09T11:48:38;96740.91;;;29.29;50.59
12221;BME280;6173;42.024;23.096;2022-09-09T11:51:07;96725.16;;;29.44;48.71
12221;BME280;6173;42.024;23.096;2022-09-09T11:53:35;96738.50;;;29.72;49.19
12221;BME280;6173;42.024;23.096;2022-09-09T11:56:11;96738.13;;;30.01;50.76
12221;BME280;6173;42.024;23.096;2022-09-09T11:58:42;96732.06;;;30.17;47.66
12221;BME280;6173;42.024;23.096;2022-09-09T12:01:27;96734.94;;;30.06;46.47
12221;BME280;6173;42.024;23.096;2022-09-09T12:04:32;96735.06;;;30.26;46.48
12221;BME280;6173;42.024;23.096;2022-09-09T12:07:01;96731.13;;;30.54;45.02
12221;BME280;6173;42.024;23.096;2022-09-09T12:09:33;96735.16;;;30.69;44.56
12221;BME280;6173;42.024;23.096;2022-09-09T12:12:16;96724.41;;;30.82;45.36
12221;BME280;6173;42.024;23.096;2022-09-09T12:14:57;96725.78;;;30.94;44.52
12221;BME280;6173;42.024;23.096;2022-09-09T12:17:26;96720.75;;;31.12;43.41
12221;BME280;6173;42.024;23.096;2022-09-09T12:20:03;96711.00;;;31.11;44.26
12221;BME280;6173;42.024;23.096;2022-09-09T12:22:37;96719.06;;;30.98;45.83
12221;BME280;6173;42.024;23.096;2022-09-09T12:25:17;96708.41;;;30.03;46.56
12221;BME280;6173;42.024;23.096;2022-09-09T12:28:00;96711.38;;;30.43;47.39
12221;BME280;6173;42.024;23.096;2022-09-09T12:30:34;96709.25;;;30.54;46.72
12221;BME280;6173;42.024;23.096;2022-09-09T12:33:10;96701.06;;;30.54;47.39
12221;BME280;6173;42.024;23.096;2022-09-09T12:35:40;96698.06;;;30.68;46.45
12221;BME280;6173;42.024;23.096;2022-09-09T12:38:14;96697.41;;;30.60;46.47
12221;BME280;6173;42.024;23.096;2022-09-09T12:40:42;96696.31;;;30.31;46.84
12221;BME280;6173;42.024;23.096;2022-09-09T12:43:19;96691.84;;;30.17;47.28
12221;BME280;6173;42.024;23.096;2022-09-09T12:45:47;96697.75;;;30.62;46.67
12221;BME280;6173;42.024;23.096;2022-09-09T12:48:18;96691.41;;;30.69;46.19
12221;BME280;6173;42.024;23.096;2022-09-09T12:50:49;96689.16;;;30.87;46.50
12221;BME280;6173;42.024;23.096;2022-09-09T12:53:21;96691.31;;;31.39;45.13
12221;BME280;6173;42.024;23.096;2022-09-09T12:55:51;96693.06;;;31.50;44.95
12221;BME280;6173;42.024;23.096;2022-09-09T12:58:19;96688.84;;;31.65;44.25
12221;BME280;6173;42.024;23.096;2022-09-09T13:00:50;96686.13;;;31.45;44.06
12221;BME280;6173;42.024;23.096;2022-09-09T13:03:19;96696.00;;;31.19;44.88
12221;BME280;6173;42.024;23.096;2022-09-09T13:05:49;96685.59;;;30.91;45.64
12221;BME280;6173;42.024;23.096;2022-09-09T13:08:16;96696.50;;;30.71;46.12
12221;BME280;6173;42.024;23.096;2022-09-09T13:10:48;96692.00;;;30.57;47.31
12221;BME280;6173;42.024;23.096;2022-09-09T13:13:21;96678.63;;;30.62;47.46
12221;BME280;6173;42.024;23.096;2022-09-09T13:15:52;96682.31;;;30.52;47.78
12221;BME280;6173;42.024;23.096;2022-09-09T13:18:22;96702.53;;;30.35;48.06
12221;BME280;6173;42.024;23.096;2022-09-09T13:20:51;96693.69;;;29.97;48.81
12221;BME280;6173;42.024;23.096;2022-09-09T13:23:20;96703.88;;;29.93;49.35
12221;BME280;6173;42.024;23.096;2022-09-09T13:25:55;96700.69;;;29.71;51.51
12221;BME280;6173;42.024;23.096;2022-09-09T13:28:24;96703.13;;;29.27;54.01
12221;BME280;6173;42.024;23.096;2022-09-09T13:30:58;96715.81;;;29.07;54.93
12221;BME280;6173;42.024;23.096;2022-09-09T13:33:31;96710.59;;;28.82;55.76
12221;BME280;6173;42.024;23.096;2022-09-09T13:36:01;96702.56;;;28.64;56.00
12221;BME280;6173;42.024;23.096;2022-09-09T13:38:32;96715.19;;;28.44;57.22
12221;BME280;6173;42.024;23.096;2022-09-09T13:41:02;96717.59;;;28.31;57.81
12221;BME280;6173;42.024;23.096;2022-09-09T13:43:36;96693.88;;;28.24;58.16
12221;BME280;6173;42.024;23.096;2022-09-09T13:46:05;96681.41;;;28.30;58.02
12221;BME280;6173;42.024;23.096;2022-09-09T13:48:54;96676.69;;;28.38;57.81
12221;BME280;6173;42.024;23.096;2022-09-09T13:51:38;96681.38;;;28.38;58.22
12221;BME280;6173;42.024;23.096;2022-09-09T13:54:05;96678.69;;;28.30;57.22
12221;BME280;6173;42.024;23.096;2022-09-09T13:56:35;96678.69;;;28.27;57.27
12221;BME280;6173;42.024;23.096;2022-09-09T13:59:03;96683.38;;;28.26;57.88
12221;BME280;6173;42.024;23.096;2022-09-09T14:01:30;96668.13;;;28.40;57.62
12221;BME280;6173;42.024;23.096;2022-09-09T14:04:00;96659.34;;;28.63;56.77
12221;BME280;6173;42.024;23.096;2022-09-09T14:06:29;96668.72;;;28.58;56.12
12221;BME280;6173;42.024;23.096;2022-09-09T14:08:59;96657.91;;;28.51;56.57
12221;BME280;6173;42.024;23.096;2022-09-09T14:11:25;96658.81;;;28.37;56.66
12221;BME280;6173;42.024;23.096;2022-09-09T14:13:52;96643.25;;;28.34;57.32
12221;BME280;6173;42.024;23.096;2022-09-09T14:16:19;96649.44;;;28.38;58.60
12221;BME280;6173;42.024;23.096;2022-09-09T14:18:47;96614.06;;;28.31;58.10
12221;BME280;6173;42.024;23.096;2022-09-09T14:21:14;96627.59;;;28.45;60.50
12221;BME280;6173;42.024;23.096;2022-09-09T14:23:42;96639.91;;;28.61;58.05
12221;BME280;6173;42.024;23.096;2022-09-09T14:26:09;96632.81;;;28.70;56.50
12221;BME280;6173;42.024;23.096;2022-09-09T14:28:36;96625.81;;;29.07;56.58
12221;BME280;6173;42.024;23.096;2022-09-09T14:31:03;96624.28;;;29.94;54.44
12221;BME280;6173;42.024;23.096;2022-09-09T14:33:30;96616.25;;;31.93;48.69
12221;BME280;6173;42.024;23.096;2022-09-09T14:35:57;96626.78;;;35.68;38.84
12221;BME280;6173;42.024;23.096;2022-09-09T14:38:25;96627.38;;;37.08;34.59
12221;BME280;6173;42.024;23.096;2022-09-09T14:40:53;96629.03;;;37.33;34.58
12221;BME280;6173;42.024;23.096;2022-09-09T14:43:20;96636.06;;;37.94;32.30
12221;BME280;6173;42.024;23.096;2022-09-09T14:45:47;96624.66;;;38.73;31.02
12221;BME280;6173;42.024;23.096;2022-09-09T14:48:16;96618.50;;;38.07;31.63
12221;BME280;6173;42.024;23.096;2022-09-09T14:50:44;96622.53;;;38.92;30.65
12221;BME280;6173;42.024;23.096;2022-09-09T14:53:11;96612.56;;;38.23;31.56
12221;BME280;6173;42.024;23.096;2022-09-09T14:55:38;96606.50;;;38.58;29.91
12221;BME280;6173;42.024;23.096;2022-09-09T14:58:06;96603.97;;;37.97;30.78
12221;BME280;6173;42.024;23.096;2022-09-09T15:00:33;96589.31;;;36.38;32.99
12221;BME280;6173;42.024;23.096;2022-09-09T15:02:59;96615.28;;;36.96;32.90
12221;BME280;6173;42.024;23.096;2022-09-09T15:05:26;96603.31;;;35.01;35.02
12221;BME280;6173;42.024;23.096;2022-09-09T15:07:53;96604.53;;;34.18;37.30
12221;BME280;6173;42.024;23.096;2022-09-09T15:10:20;96609.66;;;33.39;39.61
12221;BME280;6173;42.024;23.096;2022-09-09T15:12:46;96612.03;;;32.54;41.01
12221;BME280;6173;42.024;23.096;2022-09-09T15:15:15;96599.97;;;31.50;43.51
12221;BME280;6173;42.024;23.096;2022-09-09T15:17:42;96603.66;;;31.23;44.72
12221;BME280;6173;42.024;23.096;2022-09-09T15:20:09;96604.06;;;31.02;46.12
12221;BME280;6173;42.024;23.096;2022-09-09T15:22:36;96602.94;;;31.19;46.08
12221;BME280;6173;42.024;23.096;2022-09-09T15:25:04;96600.78;;;31.10;46.17
12221;BME280;6173;42.024;23.096;2022-09-09T15:27:31;96601.22;;;30.89;46.76
12221;BME280;6173;42.024;23.096;2022-09-09T15:29:59;96598.16;;;30.63;48.43
12221;BME280;6173;42.024;23.096;2022-09-09T15:32:27;96603.09;;;30.49;48.69
12221;BME280;6173;42.024;23.096;2022-09-09T15:34:54;96605.50;;;30.67;48.16
12221;BME280;6173;42.024;23.096;2022-09-09T15:37:21;96593.81;;;31.26;46.77
12221;BME280;6173;42.024;23.096;2022-09-09T15:39:47;96597.63;;;33.50;42.08
12221;BME280;6173;42.024;23.096;2022-09-09T15:42:14;96601.41;;;35.20;37.53
12221;BME280;6173;42.024;23.096;2022-09-09T15:44:41;96593.91;;;35.20;37.44
12221;BME280;6173;42.024;23.096;2022-09-09T15:47:10;96600.19;;;34.77;38.46
12221;BME280;6173;42.024;23.096;2022-09-09T15:49:39;96601.41;;;35.20;37.61
12221;BME280;6173;42.024;23.096;2022-09-09T15:52:05;96598.75;;;35.07;37.92
12221;BME280;6173;42.024;23.096;2022-09-09T15:54:34;96596.28;;;34.87;38.36
12221;BME280;6173;42.024;23.096;2022-09-09T15:57:03;96594.47;;;33.77;40.21
12221;BME280;6173;42.024;23.096;2022-09-09T15:59:31;96582.41;;;32.00;42.61
12221;BME280;6173;42.024;23.096;2022-09-09T16:01:59;96597.28;;;31.82;43.99
12221;BME280;6173;42.024;23.096;2022-09-09T16:04:27;96597.34;;;30.86;46.46
12221;BME280;6173;42.024;23.096;2022-09-09T16:06:57;96592.94;;;30.26;47.85
12221;BME280;6173;42.024;23.096;2022-09-09T16:09:25;96599.16;;;30.03;49.34
12221;BME280;6173;42.024;23.096;2022-09-09T16:11:53;96597.44;;;29.89;49.88
12221;BME280;6173;42.024;23.096;2022-09-09T16:14:21;96598.94;;;29.67;51.04
12221;BME280;6173;42.024;23.096;2022-09-09T16:16:50;96603.22;;;29.37;51.57
12221;BME280;6173;42.024;23.096;2022-09-09T16:19:17;96602.78;;;29.39;52.43
12221;BME280;6173;42.024;23.096;2022-09-09T16:21:46;96599.63;;;29.13;53.13
12221;BME280;6173;42.024;23.096;2022-09-09T16:24:18;96598.69;;;28.89;54.41
12221;BME280;6173;42.024;23.096;2022-09-09T16:26:46;96605.09;;;28.34;56.26
12221;BME280;6173;42.024;23.096;2022-09-09T16:29:14;96603.28;;;28.17;57.72
12221;BME280;6173;42.024;23.096;2022-09-09T16:31:43;96605.47;;;27.84;60.07
12221;BME280;6173;42.024;23.096;2022-09-09T16:34:10;96589.63;;;27.68;61.41
12221;BME280;6173;42.024;23.096;2022-09-09T16:36:38;96595.50;;;27.60;61.59
12221;BME280;6173;42.024;23.096;2022-09-09T16:39:08;96602.59;;;27.46;62.16
12221;BME280;6173;42.024;23.096;2022-09-09T16:41:37;96600.72;;;27.29;63.66
12221;BME280;6173;42.024;23.096;2022-09-09T16:44:06;96599.25;;;27.17;63.67
12221;BME280;6173;42.024;23.096;2022-09-09T16:46:35;96600.06;;;27.11;63.87
12221;BME280;6173;42.024;23.096;2022-09-09T16:49:05;96598.91;;;27.01;65.08
12221;BME280;6173;42.024;23.096;2022-09-09T16:51:33;96597.00;;;26.91;66.12
12221;BME280;6173;42.024;23.096;2022-09-09T16:54:07;96597.78;;;26.84;67.83
12221;BME280;6173;42.024;23.096;2022-09-09T16:56:35;96556.72;;;26.53;69.23
12221;BME280;6173;42.024;23.096;2022-09-09T16:59:06;96564.50;;;26.41;69.16
12221;BME280;6173;42.024;23.096;2022-09-09T17:01:35;96595.13;;;26.59;69.96
12221;BME280;6173;42.024;23.096;2022-09-09T17:04:06;96597.47;;;26.50;70.21
12221;BME280;6173;42.024;23.096;2022-09-09T17:06:34;96595.16;;;26.45;70.75
12221;BME280;6173;42.024;23.096;2022-09-09T17:09:04;96594.38;;;26.34;71.51
12221;BME280;6173;42.024;23.096;2022-09-09T17:11:31;96602.16;;;26.28;70.59
12221;BME280;6173;42.024;23.096;2022-09-09T17:13:58;96589.34;;;26.00;72.52
12221;BME280;6173;42.024;23.096;2022-09-09T17:16:28;96590.91;;;25.97;74.20
12221;BME280;6173;42.024;23.096;2022-09-09T17:18:56;96593.97;;;25.74;75.55
12221;BME280;6173;42.024;23.096;2022-09-09T17:21:25;96597.44;;;25.68;76.68
12221;BME280;6173;42.024;23.096;2022-09-09T17:23:53;96598.97;;;25.65;77.75
12221;BME280;6173;42.024;23.096;2022-09-09T17:26:23;96588.88;;;25.55;77.76
12221;BME280;6173;42.024;23.096;2022-09-09T17:28:52;96606.75;;;25.56;78.53
12221;BME280;6173;42.024;23.096;2022-09-09T17:31:20;96618.69;;;25.41;78.13
12221;BME280;6173;42.024;23.096;2022-09-09T17:33:49;96628.38;;;25.38;78.19
12221;BME280;6173;42.024;23.096;2022-09-09T17:36:19;96624.53;;;25.43;77.36
12221;BME280;6173;42.024;23.096;2022-09-09T17:38:47;96616.75;;;25.34;76.73
12221;BME280;6173;42.024;23.096;2022-09-09T17:41:16;96629.53;;;25.41;75.87
12221;BME280;6173;42.024;23.096;2022-09-09T17:43:44;96622.94;;;25.35;76.38
12221;BME280;6173;42.024;23.096;2022-09-09T17:46:12;96629.53;;;25.41;75.22
12221;BME280;6173;42.024;23.096;2022-09-09T17:48:40;96629.16;;;25.42;74.86
12221;BME280;6173;42.024;23.096;2022-09-09T17:51:11;96638.41;;;25.27;77.05
12221;BME280;6173;42.024;23.096;2022-09-09T17:53:39;96646.16;;;25.29;76.72
12221;BME280;6173;42.024;23.096;2022-09-09T17:56:08;96653.13;;;25.30;77.44
12221;BME280;6173;42.024;23.096;2022-09-09T17:58:36;96650.00;;;25.20;78.27
12221;BME280;6173;42.024;23.096;2022-09-09T18:01:04;96653.88;;;25.19;79.24
12221;BME280;6173;42.024;23.096;2022-09-09T18:03:33;96650.75;;;25.14;81.38
12221;BME280;6173;42.024;23.096;2022-09-09T18:06:02;96654.22;;;25.11;82.76
12221;BME280;6173;42.024;23.096;2022-09-09T18:08:36;96650.72;;;25.07;83.44
12221;BME280;6173;42.024;23.096;2022-09-09T18:11:03;96649.13;;;25.02;84.54
12221;BME280;6173;42.024;23.096;2022-09-09T18:13:32;96650.22;;;24.90;84.49
12221;BME280;6173;42.024;23.096;2022-09-09T18:15:59;96631.19;;;24.80;82.88
12221;BME280;6173;42.024;23.096;2022-09-09T18:18:27;96635.84;;;24.86;83.42
12221;BME280;6173;42.024;23.096;2022-09-09T18:20:59;96645.06;;;24.71;85.60
12221;BME280;6173;42.024;23.096;2022-09-09T18:23:27;96667.19;;;24.80;85.81
12221;BME280;6173;42.024;23.096;2022-09-09T18:25:55;96615.00;;;24.35;86.68
12221;BME280;6173;42.024;23.096;2022-09-09T18:28:23;96667.94;;;24.73;87.63
12221;BME280;6173;42.024;23.096;2022-09-09T18:30:50;96665.97;;;24.67;87.37
12221;BME280;6173;42.024;23.096;2022-09-09T18:33:17;96664.38;;;24.66;88.40
12221;BME280;6173;42.024;23.096;2022-09-09T18:35:44;96672.47;;;24.59;90.94
12221;BME280;6173;42.024;23.096;2022-09-09T18:38:12;96663.97;;;24.60;90.33
12221;BME280;6173;42.024;23.096;2022-09-09T18:40:42;96665.91;;;24.60;90.82
12221;BME280;6173;42.024;23.096;2022-09-09T18:43:10;96643.63;;;24.33;91.55
12221;BME280;6173;42.024;23.096;2022-09-09T18:45:37;96678.81;;;24.33;93.90
12221;BME280;6173;42.024;23.096;2022-09-09T18:48:04;96680.31;;;24.27;93.67
12221;BME280;6173;42.024;23.096;2022-09-09T18:50:32;96676.34;;;24.13;95.61
12221;BME280;6173;42.024;23.096;2022-09-09T18:52:59;96652.97;;;23.94;96.35
12221;BME280;6173;42.024;23.096;2022-09-09T18:55:27;96671.63;;;24.03;97.18
12221;BME280;6173;42.024;23.096;2022-09-09T18:57:54;96683.16;;;24.00;96.74
12221;BME280;6173;42.024;23.096;2022-09-09T19:00:24;96687.75;;;23.96;98.05
12221;BME280;6173;42.024;23.096;2022-09-09T19:02:51;96673.91;;;24.01;98.83
12221;BME280;6173;42.024;23.096;2022-09-09T19:05:18;96669.53;;;23.89;98.39
12221;BME280;6173;42.024;23.096;2022-09-09T19:07:45;96685.84;;;23.96;98.99
12221;BME280;6173;42.024;23.096;2022-09-09T19:10:12;96662.91;;;23.83;98.32
12221;BME280;6173;42.024;23.096;2022-09-09T19:12:39;96678.56;;;24.04;98.17
12221;BME280;6173;42.024;23.096;2022-09-09T19:15:07;96678.53;;;24.01;97.74
12221;BME280;6173;42.024;23.096;2022-09-09T19:17:36;96673.91;;;24.01;97.96
12221;BME280;6173;42.024;23.096;2022-09-09T19:20:04;96638.06;;;23.70;98.27
12221;BME280;6173;42.024;23.096;2022-09-09T19:22:33;96670.75;;;23.92;98.51
12221;BME280;6173;42.024;23.096;2022-09-09T19:25:00;96656.34;;;23.84;100.00
12221;BME280;6173;42.024;23.096;2022-09-09T19:27:28;96662.16;;;23.83;100.00
12221;BME280;6173;42.024;23.096;2022-09-09T19:29:54;96666.34;;;23.80;100.00
12221;BME280;6173;42.024;23.096;2022-09-09T19:32:21;96658.72;;;23.56;100.00
12221;BME280;6173;42.024;23.096;2022-09-09T19:34:49;96654.09;;;23.56;100.00
12221;BME280;6173;42.024;23.096;2022-09-09T19:37:16;96657.66;;;23.30;100.00
12221;BME280;6173;42.024;23.096;2022-09-09T19:39:43;96653.16;;;23.41;100.00
12221;BME280;6173;42.024;23.096;2022-09-09T19:42:10;96654.53;;;23.25;100.00
12221;BME280;6173;42.024;23.096;2022-09-09T19:44:42;96654.97;;;23.30;100.00
12221;BME280;6173;42.024;23.096;2022-09-09T19:47:13;96651.81;;;23.25;100.00
12221;BME280;6173;42.024;23.096;2022-09-09T19:49:41;96642.81;;;23.13;100.00
12221;BME280;6173;42.024;23.096;2022-09-09T19:52:10;96649.03;;;23.17;100.00
12221;BME280;6173;42.024;23.096;2022-09-09T19:54:37;96594.19;;;22.87;100.00
12221;BME280;6173;42.024;23.096;2022-09-09T19:57:04;96628.16;;;23.14;100.00
12221;BME280;6173;42.024;23.096;2022-09-09T19:59:31;96630.34;;;23.05;100.00
12221;BME280;6173;42.024;23.096;2022-09-09T20:01:58;96630.63;;;22.96;100.00
12221;BME280;6173;42.024;23.096;2022-09-09T20:04:24;96630.00;;;22.80;100.00
12221;BME280;6173;42.024;23.096;2022-09-09T20:06:52;96626.06;;;22.74;100.00
12221;BME280;6173;42.024;23.096;2022-09-09T20:09:21;96625.91;;;22.63;100.00
12221;BME280;6173;42.024;23.096;2022-09-09T20:11:50;96625.16;;;22.63;100.00
12221;BME280;6173;42.024;23.096;2022-09-09T20:14:17;96621.94;;;22.57;100.00
12221;BME280;6173;42.024;23.096;2022-09-09T20:16:44;96615.13;;;22.63;100.00
12221;BME280;6173;42.024;23.096;2022-09-09T20:19:46;96614.28;;;22.59;100.00
12221;BME280;6173;42.024;23.096;2022-09-09T20:22:32;96612.63;;;22.51;100.00
12221;BME280;6173;42.024;23.096;2022-09-09T20:35:02;96590.72;;;22.07;100.00
12221;BME280;6173;42.024;23.096;2022-09-09T20:37:29;96630.97;;;22.38;100.00
12221;BME280;6173;42.024;23.096;2022-09-09T20:39:56;96625.97;;;22.40;100.00
12221;BME280;6173;42.024;23.096;2022-09-09T20:42:24;96628.25;;;22.38;100.00
12221;BME280;6173;42.024;23.096;2022-09-09T20:44:51;96633.59;;;22.35;100.00
12221;BME280;6173;42.024;23.096;2022-09-09T20:47:18;96635.16;;;22.36;100.00
12221;BME280;6173;42.024;23.096;2022-09-09T20:49:45;96628.06;;;22.28;100.00
12221;BME280;6173;42.024;23.096;2022-09-09T20:52:13;96633.06;;;22.26;100.00
12221;BME280;6173;42.024;23.096;2022-09-09T20:54:40;96619.50;;;21.99;100.00
12221;BME280;6173;42.024;23.096;2022-09-09T20:57:07;96584.53;;;21.80;100.00